createdAt,value
2017-08-12T00:00:19.746Z,0
2017-08-12T00:01:19.742Z,0
2017-08-12T00:02:19.741Z,0
2017-08-12T00:03:19.708Z,0
2017-08-12T00:04:20.011Z,0
2017-08-12T00:05:20.020Z,0
2017-08-12T00:06:19.981Z,0
2017-08-12T00:07:19.971Z,0
2017-08-12T00:08:19.358Z,0
2017-08-12T00:09:19.323Z,0
2017-08-12T00:10:19.005Z,0
2017-08-12T00:11:19.669Z,0
2017-08-12T00:12:18.980Z,0
2017-08-12T00:13:19.282Z,0
2017-08-12T00:14:19.263Z,0
2017-08-12T00:15:19.295Z,0
2017-08-12T00:16:18.938Z,0
2017-08-12T00:17:18.912Z,0
2017-08-12T00:18:19.526Z,0
2017-08-12T00:19:19.515Z,0
2017-08-12T00:20:19.219Z,0
2017-08-12T00:21:19.811Z,0
2017-08-12T00:22:19.785Z,0
2017-08-12T00:23:19.482Z,0
2017-08-12T00:24:19.781Z,0
2017-08-12T00:25:19.333Z,0
2017-08-12T00:26:19.431Z,0
2017-08-12T00:27:19.109Z,0
2017-08-12T00:28:19.398Z,0
2017-08-12T00:29:19.271Z,0
2017-08-12T00:30:19.370Z,0
2017-08-12T00:31:19.690Z,0
2017-08-12T00:32:19.672Z,0
2017-08-12T00:33:19.334Z,0
2017-08-12T00:34:19.018Z,0
2017-08-12T00:35:19.322Z,0
2017-08-12T00:36:19.651Z,0
2017-08-12T00:37:18.969Z,0
2017-08-12T00:38:19.597Z,0
2017-08-12T00:39:19.256Z,0
2017-08-12T00:40:19.244Z,0
2017-08-12T00:41:18.933Z,0
2017-08-12T00:42:19.229Z,0
2017-08-12T00:43:18.896Z,0
2017-08-12T00:44:18.893Z,0
2017-08-12T00:45:18.881Z,0
2017-08-12T00:46:19.222Z,0
2017-08-12T00:47:19.483Z,0
2017-08-12T00:48:19.473Z,0
2017-08-12T00:49:18.519Z,0
2017-08-12T00:50:19.446Z,0
2017-08-12T00:51:19.114Z,0
2017-08-12T00:52:19.105Z,0
2017-08-12T00:53:18.774Z,0
2017-08-12T00:54:19.072Z,0
2017-08-12T00:55:18.437Z,0
2017-08-12T00:56:18.734Z,0
2017-08-12T00:57:19.037Z,0
2017-08-12T00:58:19.335Z,0
2017-08-12T00:59:19.014Z,0
2017-08-12T01:00:18.375Z,0
2017-08-12T01:01:18.984Z,0
2017-08-12T01:02:18.970Z,0
2017-08-12T01:03:18.332Z,0
2017-08-12T01:04:18.635Z,0
2017-08-12T01:05:18.934Z,0
2017-08-12T01:06:19.237Z,0
2017-08-12T01:07:18.911Z,0
2017-08-12T01:08:18.608Z,0
2017-08-12T01:09:18.571Z,0
2017-08-12T01:10:18.869Z,0
2017-08-12T01:11:18.597Z,0
2017-08-12T01:12:18.863Z,0
2017-08-12T01:13:18.518Z,0
2017-08-12T01:14:18.503Z,0
2017-08-12T01:15:18.812Z,0
2017-08-12T01:16:18.486Z,0
2017-08-12T01:17:18.787Z,0
2017-08-12T01:18:19.077Z,0
2017-08-12T01:19:18.127Z,0
2017-08-12T01:20:18.756Z,0
2017-08-12T01:21:18.772Z,0
2017-08-12T01:22:17.781Z,0
2017-08-12T01:23:19.022Z,0
2017-08-12T01:24:19.012Z,0
2017-08-12T01:25:18.681Z,0
2017-08-12T01:26:18.355Z,0
2017-08-12T01:27:18.343Z,0
2017-08-12T01:28:18.334Z,0
2017-08-12T01:29:18.630Z,0
2017-08-12T01:30:18.300Z,0
2017-08-12T01:31:18.330Z,0
2017-08-12T01:32:18.285Z,0
2017-08-12T01:33:18.262Z,0
2017-08-12T01:34:18.251Z,0
2017-08-12T01:35:18.560Z,0
2017-08-12T01:36:18.555Z,0
2017-08-12T01:37:18.214Z,0
2017-08-12T01:38:17.976Z,0
2017-08-12T01:39:18.537Z,0
2017-08-12T01:40:17.858Z,0
2017-08-12T01:41:18.476Z,0
2017-08-12T01:42:18.497Z,0
2017-08-12T01:43:18.147Z,0
2017-08-12T01:44:18.747Z,0
2017-08-12T01:45:18.462Z,0
2017-08-12T01:46:18.411Z,0
2017-08-12T01:47:18.086Z,0
2017-08-12T01:48:18.384Z,0
2017-08-12T01:49:17.752Z,0
2017-08-12T01:50:17.739Z,0
2017-08-12T01:51:18.078Z,0
2017-08-12T01:52:18.334Z,0
2017-08-12T01:53:18.316Z,0
2017-08-12T01:54:18.309Z,0
2017-08-12T01:55:18.301Z,0
2017-08-12T01:56:17.967Z,0
2017-08-12T01:57:18.272Z,0
2017-08-12T01:58:17.949Z,0
2017-08-12T01:59:18.243Z,0
2017-08-12T02:00:17.915Z,0
2017-08-12T02:01:17.900Z,0
2017-08-12T02:02:18.209Z,0
2017-08-12T02:03:17.566Z,0
2017-08-12T02:04:18.497Z,0
2017-08-12T02:05:18.169Z,0
2017-08-12T02:06:17.849Z,0
2017-08-12T02:07:17.825Z,0
2017-08-12T02:08:18.132Z,0
2017-08-12T02:09:18.427Z,0
2017-08-12T02:10:17.784Z,0
2017-08-12T02:11:18.091Z,0
2017-08-12T02:12:18.140Z,0
2017-08-12T02:13:18.061Z,0
2017-08-12T02:14:18.056Z,0
2017-08-12T02:15:18.038Z,0
2017-08-12T02:16:18.018Z,0
2017-08-12T02:17:17.795Z,0
2017-08-12T02:18:17.371Z,0
2017-08-12T02:19:17.992Z,0
2017-08-12T02:20:17.654Z,0
2017-08-12T02:21:17.961Z,0
2017-08-12T02:22:17.941Z,0
2017-08-12T02:23:17.927Z,0
2017-08-12T02:24:17.923Z,0
2017-08-12T02:25:18.224Z,0
2017-08-12T02:26:17.890Z,0
2017-08-12T02:27:17.932Z,0
2017-08-12T02:28:17.571Z,0
2017-08-12T02:29:17.854Z,0
2017-08-12T02:30:17.841Z,0
2017-08-12T02:31:17.833Z,0
2017-08-12T02:32:17.509Z,0
2017-08-12T02:33:17.814Z,0
2017-08-12T02:34:17.171Z,0
2017-08-12T02:35:17.471Z,0
2017-08-12T02:36:17.511Z,0
2017-08-12T02:37:18.072Z,0
2017-08-12T02:38:17.736Z,0
2017-08-12T02:39:18.039Z,0
2017-08-12T02:40:16.786Z,0
2017-08-12T02:41:17.703Z,0
2017-08-12T02:42:17.692Z,0
2017-08-12T02:43:17.735Z,0
2017-08-12T02:44:17.666Z,0
2017-08-12T02:45:17.658Z,0
2017-08-12T02:46:17.964Z,0
2017-08-12T02:47:17.945Z,0
2017-08-12T02:48:17.616Z,0
2017-08-12T02:49:17.599Z,0
2017-08-12T02:50:17.586Z,0
2017-08-12T02:51:17.581Z,0
2017-08-12T02:52:17.574Z,0
2017-08-12T02:53:17.914Z,0
2017-08-12T02:54:17.225Z,0
2017-08-12T02:55:17.219Z,0
2017-08-12T02:56:17.198Z,0
2017-08-12T02:57:17.513Z,0
2017-08-12T02:58:17.803Z,0
2017-08-12T02:59:17.474Z,0
2017-08-12T03:00:17.777Z,0
2017-08-12T03:01:17.132Z,0
2017-08-12T03:02:17.126Z,0
2017-08-12T03:03:17.735Z,0
2017-08-12T03:04:17.105Z,0
2017-08-12T03:05:17.737Z,0
2017-08-12T03:06:17.074Z,0
2017-08-12T03:07:17.372Z,0
2017-08-12T03:08:17.383Z,0
2017-08-12T03:09:17.338Z,0
2017-08-12T03:10:17.013Z,0
2017-08-12T03:11:17.006Z,0
2017-08-12T03:12:16.992Z,0
2017-08-12T03:13:17.306Z,0
2017-08-12T03:14:17.590Z,0
2017-08-12T03:15:17.586Z,0
2017-08-12T03:16:16.960Z,0
2017-08-12T03:17:16.932Z,0
2017-08-12T03:18:16.926Z,0
2017-08-12T03:19:16.949Z,0
2017-08-12T03:20:16.906Z,0
2017-08-12T03:21:17.499Z,0
2017-08-12T03:22:16.863Z,0
2017-08-12T03:23:17.176Z,0
2017-08-12T03:24:17.160Z,0
2017-08-12T03:25:17.146Z,0
2017-08-12T03:26:17.133Z,0
2017-08-12T03:27:16.798Z,0
2017-08-12T03:28:17.408Z,0
2017-08-12T03:29:17.128Z,0
2017-08-12T03:30:17.117Z,0
2017-08-12T03:31:16.760Z,0
2017-08-12T03:32:17.360Z,0
2017-08-12T03:33:17.034Z,0
2017-08-12T03:34:16.703Z,0
2017-08-12T03:35:16.373Z,0
2017-08-12T03:36:17.338Z,0
2017-08-12T03:37:16.671Z,0
2017-08-12T03:38:17.015Z,0
2017-08-12T03:39:17.259Z,0
2017-08-12T03:40:17.256Z,0
2017-08-12T03:41:16.627Z,0
2017-08-12T03:42:16.913Z,0
2017-08-12T03:43:16.584Z,0
2017-08-12T03:44:17.198Z,0
2017-08-12T03:45:16.560Z,0
2017-08-12T03:46:16.543Z,0
2017-08-12T03:47:16.532Z,0
2017-08-12T03:48:16.837Z,0
2017-08-12T03:49:16.503Z,0
2017-08-12T03:50:16.187Z,0
2017-08-12T03:51:16.489Z,0
2017-08-12T03:52:17.088Z,0
2017-08-12T03:53:16.146Z,0
2017-08-12T03:54:16.491Z,0
2017-08-12T03:55:17.051Z,0
2017-08-12T03:56:16.728Z,0
2017-08-12T03:57:16.705Z,0
2017-08-12T03:58:17.010Z,0
2017-08-12T03:59:16.680Z,0
2017-08-12T04:00:16.045Z,0
2017-08-12T04:01:16.962Z,0
2017-08-12T04:02:16.654Z,0
2017-08-12T04:03:16.964Z,0
2017-08-12T04:04:16.923Z,0
2017-08-12T04:05:16.600Z,0
2017-08-12T04:06:15.656Z,0
2017-08-12T04:07:15.950Z,0
2017-08-12T04:08:16.558Z,0
2017-08-12T04:09:16.240Z,0
2017-08-12T04:10:16.219Z,0
2017-08-12T04:11:16.216Z,0
2017-08-12T04:12:16.515Z,0
2017-08-12T04:13:16.812Z,0
2017-08-12T04:14:16.481Z,0
2017-08-12T04:15:16.808Z,0
2017-08-12T04:16:16.144Z,0
2017-08-12T04:17:16.435Z,0
2017-08-12T04:18:16.427Z,0
2017-08-12T04:19:16.720Z,0
2017-08-12T04:20:16.759Z,0
2017-08-12T04:21:16.390Z,0
2017-08-12T04:22:16.058Z,5
2017-08-12T04:23:15.734Z,5
2017-08-12T04:24:16.342Z,5
2017-08-12T04:25:16.340Z,5
2017-08-12T04:26:16.322Z,5
2017-08-12T04:27:16.308Z,5
2017-08-12T04:28:16.600Z,5
2017-08-12T04:29:16.508Z,5
2017-08-12T04:30:16.268Z,10
2017-08-12T04:31:15.936Z,10
2017-08-12T04:32:16.249Z,10
2017-08-12T04:33:16.249Z,10
2017-08-12T04:34:16.220Z,15
2017-08-12T04:35:16.523Z,15
2017-08-12T04:36:16.187Z,15
2017-08-12T04:37:15.866Z,20
2017-08-12T04:38:16.477Z,20
2017-08-12T04:39:16.142Z,20
2017-08-12T04:40:15.817Z,25
2017-08-12T04:41:16.429Z,25
2017-08-12T04:42:16.101Z,25
2017-08-12T04:43:16.408Z,25
2017-08-12T04:44:15.453Z,25
2017-08-12T04:45:16.116Z,25
2017-08-12T04:46:15.430Z,25
2017-08-12T04:47:15.730Z,25
2017-08-12T04:48:16.334Z,25
2017-08-12T04:49:15.691Z,25
2017-08-12T04:50:15.430Z,25
2017-08-12T04:51:15.667Z,25
2017-08-12T04:52:15.966Z,25
2017-08-12T04:53:15.642Z,25
2017-08-12T04:54:15.314Z,25
2017-08-12T04:55:15.969Z,25
2017-08-12T04:56:15.914Z,25
2017-08-12T04:57:15.900Z,25
2017-08-12T04:58:15.575Z,25
2017-08-12T04:59:16.186Z,25
2017-08-12T05:00:16.179Z,25
2017-08-12T05:01:15.537Z,30
2017-08-12T05:02:16.157Z,30
2017-08-12T05:03:15.511Z,30
2017-08-12T05:04:15.811Z,30
2017-08-12T05:05:15.794Z,30
2017-08-12T05:06:15.465Z,30
2017-08-12T05:07:15.459Z,30
2017-08-12T05:08:15.751Z,30
2017-08-12T05:09:15.740Z,30
2017-08-12T05:10:15.732Z,30
2017-08-12T05:11:15.911Z,30
2017-08-12T05:12:15.703Z,30
2017-08-12T05:13:15.059Z,30
2017-08-12T05:14:15.371Z,30
2017-08-12T05:15:15.344Z,30
2017-08-12T05:16:15.694Z,35
2017-08-12T05:17:15.015Z,35
2017-08-12T05:18:15.923Z,30
2017-08-12T05:19:14.977Z,30
2017-08-12T05:20:15.595Z,30
2017-08-12T05:21:15.892Z,25
2017-08-12T05:22:15.567Z,25
2017-08-12T05:23:15.869Z,25
2017-08-12T05:24:15.226Z,25
2017-08-12T05:25:15.521Z,30
2017-08-12T05:26:14.888Z,30
2017-08-12T05:27:15.491Z,30
2017-08-12T05:28:15.200Z,30
2017-08-12T05:29:15.474Z,30
2017-08-12T05:30:15.152Z,30
2017-08-12T05:31:15.184Z,25
2017-08-12T05:32:15.117Z,20
2017-08-12T05:33:15.420Z,20
2017-08-12T05:34:15.088Z,15
2017-08-12T05:35:15.701Z,15
2017-08-12T05:36:15.382Z,15
2017-08-12T05:37:15.052Z,20
2017-08-12T05:38:15.382Z,20
2017-08-12T05:39:15.280Z,20
2017-08-12T05:40:15.003Z,25
2017-08-12T05:41:14.680Z,25
2017-08-12T05:42:15.358Z,25
2017-08-12T05:43:14.654Z,25
2017-08-12T05:44:15.271Z,30
2017-08-12T05:45:14.626Z,30
2017-08-12T05:46:14.926Z,30
2017-08-12T05:47:14.627Z,30
2017-08-12T05:48:15.233Z,35
2017-08-12T05:49:15.521Z,35
2017-08-12T05:50:14.876Z,30
2017-08-12T05:51:15.173Z,30
2017-08-12T05:52:15.170Z,25
2017-08-12T05:53:15.143Z,25
2017-08-12T05:54:14.202Z,30
2017-08-12T05:55:14.808Z,35
2017-08-12T05:56:15.450Z,40
2017-08-12T05:57:15.415Z,40
2017-08-12T05:58:15.458Z,40
2017-08-12T05:59:14.756Z,40
2017-08-12T06:00:15.363Z,35
2017-08-12T06:01:15.039Z,45
2017-08-12T06:02:15.135Z,45
2017-08-12T06:03:14.701Z,45
2017-08-12T06:04:15.007Z,45
2017-08-12T06:05:14.994Z,45
2017-08-12T06:06:15.292Z,50
2017-08-12T06:07:14.645Z,50
2017-08-12T06:08:14.637Z,50
2017-08-12T06:09:15.292Z,50
2017-08-12T06:10:14.618Z,45
2017-08-12T06:11:14.593Z,45
2017-08-12T06:12:14.892Z,45
2017-08-12T06:13:15.192Z,40
2017-08-12T06:14:14.550Z,35
2017-08-12T06:15:14.538Z,30
2017-08-12T06:16:14.525Z,25
2017-08-12T06:17:14.851Z,20
2017-08-12T06:18:13.876Z,25
2017-08-12T06:19:14.797Z,30
2017-08-12T06:20:15.293Z,35
2017-08-12T06:21:14.160Z,50
2017-08-12T06:22:15.076Z,55
2017-08-12T06:23:14.129Z,55
2017-08-12T06:24:14.726Z,55
2017-08-12T06:25:14.408Z,55
2017-08-12T06:26:14.385Z,50
2017-08-12T06:27:14.680Z,40
2017-08-12T06:28:14.681Z,40
2017-08-12T06:29:14.706Z,40
2017-08-12T06:30:15.230Z,45
2017-08-12T06:31:15.013Z,45
2017-08-12T06:32:14.624Z,50
2017-08-12T06:33:14.299Z,50
2017-08-12T06:34:14.279Z,55
2017-08-12T06:35:14.271Z,55
2017-08-12T06:36:14.282Z,55
2017-08-12T06:37:14.242Z,55
2017-08-12T06:38:14.229Z,55
2017-08-12T06:39:14.213Z,60
2017-08-12T06:40:14.846Z,60
2017-08-12T06:41:14.192Z,65
2017-08-12T06:42:14.251Z,65
2017-08-12T06:43:14.487Z,65
2017-08-12T06:44:14.152Z,65
2017-08-12T06:45:14.438Z,65
2017-08-12T06:46:14.437Z,65
2017-08-12T06:47:14.435Z,65
2017-08-12T06:48:14.414Z,65
2017-08-12T06:49:14.389Z,65
2017-08-12T06:50:14.683Z,60
2017-08-12T06:51:13.730Z,60
2017-08-12T06:52:14.342Z,55
2017-08-12T06:53:14.078Z,60
2017-08-12T06:54:14.677Z,65
2017-08-12T06:55:14.355Z,70
2017-08-12T06:56:14.286Z,70
2017-08-12T06:57:14.278Z,75
2017-08-12T06:58:14.261Z,75
2017-08-12T06:59:13.943Z,75
2017-08-12T07:00:14.233Z,75
2017-08-12T07:01:13.803Z,80
2017-08-12T07:02:14.257Z,80
2017-08-12T07:03:13.885Z,80
2017-08-12T07:04:14.195Z,80
2017-08-12T07:05:14.492Z,75
2017-08-12T07:06:13.843Z,70
2017-08-12T07:07:14.446Z,65
2017-08-12T07:08:14.131Z,60
2017-08-12T07:09:13.807Z,60
2017-08-12T07:10:13.781Z,60
2017-08-12T07:11:13.775Z,55
2017-08-12T07:12:14.076Z,55
2017-08-12T07:13:14.370Z,50
2017-08-12T07:14:14.408Z,50
2017-08-12T07:15:13.414Z,50
2017-08-12T07:16:13.708Z,50
2017-08-12T07:17:14.317Z,60
2017-08-12T07:18:13.988Z,60
2017-08-12T07:19:13.657Z,60
2017-08-12T07:20:14.277Z,60
2017-08-12T07:21:13.654Z,65
2017-08-12T07:22:13.610Z,65
2017-08-12T07:23:13.607Z,70
2017-08-12T07:24:13.585Z,70
2017-08-12T07:25:14.207Z,75
2017-08-12T07:26:13.570Z,85
2017-08-12T07:27:13.241Z,95
2017-08-12T07:28:13.540Z,100
2017-08-12T07:29:14.149Z,100
2017-08-12T07:30:13.518Z,100
2017-08-12T07:31:13.808Z,100
2017-08-12T07:32:13.788Z,95
2017-08-12T07:33:13.783Z,100
2017-08-12T07:34:13.145Z,100
2017-08-12T07:35:13.780Z,105
2017-08-12T07:36:13.432Z,100
2017-08-12T07:37:13.106Z,90
2017-08-12T07:38:13.714Z,95
2017-08-12T07:39:13.905Z,105
2017-08-12T07:40:13.680Z,110
2017-08-12T07:41:14.022Z,105
2017-08-12T07:42:13.654Z,100
2017-08-12T07:43:13.331Z,110
2017-08-12T07:44:13.640Z,100
2017-08-12T07:45:13.621Z,100
2017-08-12T07:46:13.609Z,100
2017-08-12T07:47:13.600Z,100
2017-08-12T07:48:13.266Z,105
2017-08-12T07:49:13.886Z,105
2017-08-12T07:50:13.862Z,95
2017-08-12T07:51:13.861Z,85
2017-08-12T07:52:13.882Z,80
2017-08-12T07:53:13.512Z,80
2017-08-12T07:54:13.503Z,70
2017-08-12T07:55:13.495Z,65
2017-08-12T07:56:12.848Z,65
2017-08-12T07:57:13.461Z,65
2017-08-12T07:58:13.753Z,65
2017-08-12T07:59:13.121Z,65
2017-08-12T08:00:13.136Z,70
2017-08-12T08:01:13.105Z,70
2017-08-12T08:02:13.089Z,65
2017-08-12T08:03:13.065Z,65
2017-08-12T08:04:13.375Z,65
2017-08-12T08:05:13.356Z,70
2017-08-12T08:06:13.336Z,80
2017-08-12T08:07:13.013Z,85
2017-08-12T08:08:13.001Z,85
2017-08-12T08:09:12.985Z,85
2017-08-12T08:10:13.285Z,90
2017-08-12T08:11:12.958Z,90
2017-08-12T08:12:12.949Z,85
2017-08-12T08:13:13.255Z,90
2017-08-12T08:14:13.583Z,95
2017-08-12T08:15:12.909Z,90
2017-08-12T08:16:12.887Z,95
2017-08-12T08:17:12.886Z,105
2017-08-12T08:18:12.870Z,100
2017-08-12T08:19:12.860Z,100
2017-08-12T08:20:13.462Z,90
2017-08-12T08:21:13.132Z,95
2017-08-12T08:22:12.812Z,90
2017-08-12T08:23:13.438Z,95
2017-08-12T08:24:12.785Z,100
2017-08-12T08:25:13.083Z,95
2017-08-12T08:26:13.075Z,90
2017-08-12T08:27:12.751Z,100
2017-08-12T08:28:13.357Z,100
2017-08-12T08:29:13.030Z,100
2017-08-12T08:30:12.707Z,95
2017-08-12T08:31:12.698Z,95
2017-08-12T08:32:12.682Z,100
2017-08-12T08:33:12.666Z,105
2017-08-12T08:34:13.280Z,130
2017-08-12T08:35:12.957Z,125
2017-08-12T08:36:12.942Z,120
2017-08-12T08:37:12.609Z,115
2017-08-12T08:38:13.114Z,135
2017-08-12T08:39:12.583Z,135
2017-08-12T08:40:12.882Z,135
2017-08-12T08:41:12.871Z,145
2017-08-12T08:42:12.866Z,155
2017-08-12T08:43:12.858Z,155
2017-08-12T08:44:13.193Z,170
2017-08-12T08:45:12.510Z,160
2017-08-12T08:46:12.496Z,160
2017-08-12T08:47:12.490Z,150
2017-08-12T08:48:13.097Z,140
2017-08-12T08:49:12.773Z,160
2017-08-12T08:50:12.753Z,140
2017-08-12T08:51:12.744Z,150
2017-08-12T08:52:12.724Z,150
2017-08-12T08:53:12.712Z,145
2017-08-12T08:54:12.443Z,145
2017-08-12T08:55:12.379Z,140
2017-08-12T08:56:12.682Z,130
2017-08-12T08:57:12.978Z,110
2017-08-12T08:58:12.337Z,100
2017-08-12T08:59:12.639Z,105
2017-08-12T09:00:12.943Z,120
2017-08-12T09:01:12.621Z,110
2017-08-12T09:02:12.295Z,115
2017-08-12T09:03:12.279Z,120
2017-08-12T09:04:12.896Z,120
2017-08-12T09:05:12.245Z,110
2017-08-12T09:06:11.925Z,110
2017-08-12T09:07:12.860Z,115
2017-08-12T09:08:12.530Z,130
2017-08-12T09:09:12.508Z,130
2017-08-12T09:10:12.185Z,140
2017-08-12T09:11:12.182Z,150
2017-08-12T09:12:12.478Z,100
2017-08-12T09:13:12.661Z,120
2017-08-12T09:14:12.448Z,120
2017-08-12T09:15:11.821Z,110
2017-08-12T09:16:11.797Z,125
2017-08-12T09:17:11.782Z,125
2017-08-12T09:18:11.772Z,145
2017-08-12T09:19:12.382Z,175
2017-08-12T09:20:12.377Z,165
2017-08-12T09:21:12.365Z,175
2017-08-12T09:22:12.353Z,160
2017-08-12T09:23:12.644Z,190
2017-08-12T09:24:11.703Z,175
2017-08-12T09:25:12.316Z,145
2017-08-12T09:26:11.704Z,150
2017-08-12T09:27:11.662Z,155
2017-08-12T09:28:12.274Z,150
2017-08-12T09:29:12.461Z,150
2017-08-12T09:30:12.293Z,155
2017-08-12T09:31:11.604Z,125
2017-08-12T09:32:12.534Z,125
2017-08-12T09:33:12.240Z,135
2017-08-12T09:34:12.514Z,135
2017-08-12T09:35:12.176Z,145
2017-08-12T09:36:12.167Z,125
2017-08-12T09:37:12.156Z,155
2017-08-12T09:38:11.831Z,145
2017-08-12T09:39:11.755Z,140
2017-08-12T09:40:12.120Z,150
2017-08-12T09:41:12.458Z,140
2017-08-12T09:42:12.097Z,120
2017-08-12T09:43:12.080Z,150
2017-08-12T09:44:12.067Z,140
2017-08-12T09:45:11.736Z,160
2017-08-12T09:46:11.734Z,165
2017-08-12T09:47:12.367Z,150
2017-08-12T09:48:12.334Z,130
2017-08-12T09:49:12.312Z,140
2017-08-12T09:50:12.347Z,140
2017-08-12T09:51:11.388Z,175
2017-08-12T09:52:11.982Z,165
2017-08-12T09:53:12.283Z,180
2017-08-12T09:54:11.936Z,150
2017-08-12T09:55:11.615Z,145
2017-08-12T09:56:11.607Z,150
2017-08-12T09:57:11.583Z,185
2017-08-12T09:58:11.576Z,150
2017-08-12T09:59:11.568Z,150
2017-08-12T10:00:11.861Z,155
2017-08-12T10:01:11.850Z,140
2017-08-12T10:02:11.210Z,140
2017-08-12T10:03:11.839Z,125
2017-08-12T10:04:11.813Z,120
2017-08-12T10:05:11.814Z,135
2017-08-12T10:06:11.472Z,130
2017-08-12T10:07:11.797Z,135
2017-08-12T10:08:11.457Z,130
2017-08-12T10:09:11.747Z,130
2017-08-12T10:10:11.766Z,105
2017-08-12T10:11:11.748Z,120
2017-08-12T10:12:11.092Z,95
2017-08-12T10:13:11.403Z,125
2017-08-12T10:14:12.082Z,125
2017-08-12T10:15:11.382Z,120
2017-08-12T10:16:11.660Z,160
2017-08-12T10:17:11.030Z,140
2017-08-12T10:18:11.639Z,135
2017-08-12T10:19:11.332Z,100
2017-08-12T10:20:10.983Z,85
2017-08-12T10:21:11.277Z,105
2017-08-12T10:22:11.598Z,115
2017-08-12T10:23:11.574Z,135
2017-08-12T10:24:11.243Z,145
2017-08-12T10:25:11.559Z,140
2017-08-12T10:26:11.538Z,145
2017-08-12T10:27:11.938Z,150
2017-08-12T10:28:11.201Z,175
2017-08-12T10:29:10.866Z,170
2017-08-12T10:30:11.797Z,175
2017-08-12T10:31:11.522Z,165
2017-08-12T10:32:11.149Z,145
2017-08-12T10:33:11.446Z,160
2017-08-12T10:34:11.431Z,140
2017-08-12T10:35:11.141Z,135
2017-08-12T10:36:11.147Z,130
2017-08-12T10:37:11.395Z,125
2017-08-12T10:38:11.385Z,135
2017-08-12T10:39:11.688Z,115
2017-08-12T10:40:11.369Z,115
2017-08-12T10:41:11.041Z,115
2017-08-12T10:42:11.334Z,105
2017-08-12T10:43:11.013Z,105
2017-08-12T10:44:11.307Z,105
2017-08-12T10:45:11.299Z,105
2017-08-12T10:46:11.610Z,110
2017-08-12T10:47:10.964Z,105
2017-08-12T10:48:10.945Z,125
2017-08-12T10:49:10.935Z,120
2017-08-12T10:50:10.924Z,115
2017-08-12T10:51:11.207Z,110
2017-08-12T10:52:11.214Z,130
2017-08-12T10:53:10.574Z,120
2017-08-12T10:54:10.567Z,110
2017-08-12T10:55:11.174Z,115
2017-08-12T10:56:11.157Z,115
2017-08-12T10:57:11.143Z,105
2017-08-12T10:58:10.824Z,95
2017-08-12T10:59:10.869Z,105
2017-08-12T11:00:11.156Z,100
2017-08-12T11:01:11.120Z,105
2017-08-12T11:02:11.419Z,105
2017-08-12T11:03:11.397Z,95
2017-08-12T11:04:11.384Z,95
2017-08-12T11:05:10.733Z,115
2017-08-12T11:06:11.406Z,105
2017-08-12T11:07:10.712Z,100
2017-08-12T11:08:10.712Z,105
2017-08-12T11:09:11.007Z,105
2017-08-12T11:10:10.684Z,110
2017-08-12T11:11:10.969Z,120
2017-08-12T11:12:11.015Z,130
2017-08-12T11:13:10.948Z,125
2017-08-12T11:14:10.954Z,105
2017-08-12T11:15:10.299Z,100
2017-08-12T11:16:10.919Z,110
2017-08-12T11:17:10.270Z,120
2017-08-12T11:18:10.893Z,150
2017-08-12T11:19:10.874Z,135
2017-08-12T11:20:09.935Z,130
2017-08-12T11:21:10.229Z,145
2017-08-12T11:22:10.838Z,145
2017-08-12T11:23:10.197Z,140
2017-08-12T11:24:11.132Z,170
2017-08-12T11:25:11.115Z,155
2017-08-12T11:26:10.786Z,160
2017-08-12T11:27:10.150Z,190
2017-08-12T11:28:11.079Z,175
2017-08-12T11:29:10.460Z,165
2017-08-12T11:30:11.067Z,195
2017-08-12T11:31:10.109Z,180
2017-08-12T11:32:10.732Z,155
2017-08-12T11:33:10.701Z,170
2017-08-12T11:34:10.690Z,135
2017-08-12T11:35:10.356Z,140
2017-08-12T11:36:10.354Z,130
2017-08-12T11:37:09.713Z,125
2017-08-12T11:38:10.332Z,120
2017-08-12T11:39:10.832Z,140
2017-08-12T11:40:10.630Z,155
2017-08-12T11:41:10.938Z,160
2017-08-12T11:42:10.287Z,145
2017-08-12T11:43:10.270Z,150
2017-08-12T11:44:09.938Z,150
2017-08-12T11:45:10.565Z,125
2017-08-12T11:46:10.848Z,100
2017-08-12T11:47:10.524Z,95
2017-08-12T11:48:10.517Z,85
2017-08-12T11:49:10.812Z,85
2017-08-12T11:50:10.804Z,100
2017-08-12T11:51:10.166Z,105
2017-08-12T11:52:10.519Z,105
2017-08-12T11:53:10.457Z,100
2017-08-12T11:54:10.754Z,100
2017-08-12T11:55:10.139Z,105
2017-08-12T11:56:10.732Z,100
2017-08-12T11:57:10.116Z,105
2017-08-12T11:58:09.770Z,105
2017-08-12T11:59:10.388Z,110
2017-08-12T12:00:09.756Z,105
2017-08-12T12:01:10.063Z,100
2017-08-12T12:02:09.723Z,90
2017-08-12T12:03:10.650Z,90
2017-08-12T12:04:10.636Z,80
2017-08-12T12:05:10.317Z,90
2017-08-12T12:06:10.300Z,85
2017-08-12T12:07:10.287Z,90
2017-08-12T12:08:10.277Z,100
2017-08-12T12:09:10.578Z,105
2017-08-12T12:10:10.254Z,105
2017-08-12T12:11:09.917Z,95
2017-08-12T12:12:09.917Z,90
2017-08-12T12:13:10.211Z,95
2017-08-12T12:14:10.206Z,100
2017-08-12T12:15:10.205Z,95
2017-08-12T12:16:09.552Z,95
2017-08-12T12:17:10.482Z,95
2017-08-12T12:18:10.153Z,100
2017-08-12T12:19:10.139Z,100
2017-08-12T12:20:09.514Z,100
2017-08-12T12:21:10.117Z,115
2017-08-12T12:22:09.797Z,110
2017-08-12T12:23:10.099Z,100
2017-08-12T12:24:09.456Z,105
2017-08-12T12:25:09.763Z,125
2017-08-12T12:26:10.369Z,155
2017-08-12T12:27:10.045Z,170
2017-08-12T12:28:09.095Z,160
2017-08-12T12:29:09.404Z,155
2017-08-12T12:30:10.006Z,115
2017-08-12T12:31:10.320Z,120
2017-08-12T12:32:09.985Z,120
2017-08-12T12:33:09.354Z,125
2017-08-12T12:34:09.645Z,125
2017-08-12T12:35:09.955Z,100
2017-08-12T12:36:09.628Z,120
2017-08-12T12:37:09.630Z,115
2017-08-12T12:38:10.476Z,170
2017-08-12T12:39:10.111Z,155
2017-08-12T12:40:09.686Z,140
2017-08-12T12:41:09.566Z,140
2017-08-12T12:42:09.878Z,110
2017-08-12T12:43:10.187Z,105
2017-08-12T12:44:09.845Z,105
2017-08-12T12:45:09.842Z,95
2017-08-12T12:46:10.142Z,100
2017-08-12T12:47:10.129Z,105
2017-08-12T12:48:10.162Z,105
2017-08-12T12:49:10.103Z,90
2017-08-12T12:50:09.153Z,90
2017-08-12T12:51:08.873Z,95
2017-08-12T12:52:09.798Z,95
2017-08-12T12:53:08.860Z,75
2017-08-12T12:54:09.896Z,85
2017-08-12T12:55:09.098Z,75
2017-08-12T12:56:09.926Z,85
2017-08-12T12:57:10.019Z,85
2017-08-12T12:58:09.688Z,90
2017-08-12T12:59:09.359Z,85
2017-08-12T13:00:09.668Z,105
2017-08-12T13:01:09.363Z,130
2017-08-12T13:02:09.662Z,110
2017-08-12T13:03:09.058Z,85
2017-08-12T13:04:09.320Z,105
2017-08-12T13:05:09.005Z,100
2017-08-12T13:06:09.298Z,85
2017-08-12T13:07:09.280Z,80
2017-08-12T13:08:09.571Z,70
2017-08-12T13:09:09.872Z,75
2017-08-12T13:10:08.927Z,80
2017-08-12T13:11:08.913Z,75
2017-08-12T13:12:09.530Z,80
2017-08-12T13:13:09.200Z,95
2017-08-12T13:14:09.189Z,80
2017-08-12T13:15:09.173Z,80
2017-08-12T13:16:09.224Z,85
2017-08-12T13:17:09.151Z,85
2017-08-12T13:18:09.462Z,80
2017-08-12T13:19:09.765Z,75
2017-08-12T13:20:09.434Z,75
2017-08-12T13:21:08.788Z,70
2017-08-12T13:22:09.412Z,70
2017-08-12T13:23:09.717Z,70
2017-08-12T13:24:09.067Z,70
2017-08-12T13:25:08.737Z,70
2017-08-12T13:26:08.923Z,85
2017-08-12T13:27:08.722Z,95
2017-08-12T13:28:09.340Z,95
2017-08-12T13:29:09.329Z,80
2017-08-12T13:30:09.624Z,135
2017-08-12T13:31:09.306Z,125
2017-08-12T13:32:09.329Z,130
2017-08-12T13:33:09.004Z,140
2017-08-12T13:34:08.961Z,200
2017-08-12T13:35:09.578Z,235
2017-08-12T13:36:09.294Z,240
2017-08-12T13:37:09.135Z,235
2017-08-12T13:38:09.218Z,165
2017-08-12T13:39:09.720Z,145
2017-08-12T13:40:09.534Z,135
2017-08-12T13:41:09.202Z,135
2017-08-12T13:42:08.874Z,130
2017-08-12T13:43:08.860Z,130
2017-08-12T13:44:09.230Z,130
2017-08-12T13:45:08.844Z,115
2017-08-12T13:46:09.135Z,100
2017-08-12T13:47:08.825Z,120
2017-08-12T13:48:09.103Z,250
2017-08-12T13:49:08.870Z,240
2017-08-12T13:50:09.398Z,330
2017-08-12T13:51:08.769Z,310
2017-08-12T13:52:09.380Z,280
2017-08-12T13:53:08.425Z,250
2017-08-12T13:54:09.040Z,210
2017-08-12T13:55:09.033Z,230
2017-08-12T13:56:09.013Z,200
2017-08-12T13:57:08.396Z,175
2017-08-12T13:58:08.694Z,150
2017-08-12T13:59:08.678Z,190
2017-08-12T14:00:08.674Z,200
2017-08-12T14:01:08.962Z,160
2017-08-12T14:02:08.963Z,115
2017-08-12T14:03:08.940Z,115
2017-08-12T14:04:08.948Z,125
2017-08-12T14:05:08.922Z,100
2017-08-12T14:06:08.918Z,110
2017-08-12T14:07:09.254Z,90
2017-08-12T14:08:09.231Z,110
2017-08-12T14:09:08.889Z,110
2017-08-12T14:10:08.562Z,120
2017-08-12T14:11:08.867Z,120
2017-08-12T14:12:08.232Z,130
2017-08-12T14:13:08.842Z,120
2017-08-12T14:14:09.147Z,95